Time;durP1;ratioP1;P1;durP2;ratioP2;P2;SDS_P1;SDS_P2;PMS_P1;PMS_P2;Temp;Humidity;BMP_temperature;BMP_pressure;BME280_temperature;BME280_humidity;BME280_pressure;Samples;Min_cycle;Max_cycle;Signal;HPM_P1;HPM_P2
2022/04/26 03:36:41;;;;;;;34.60;21.10;;;;;;;7.66;86.11;98110.37;105961;1278;22845;-76
2022/04/26 03:39:08;;;;;;;32.70;19.60;;;;;;;7.65;86.12;98111.98;105718;1278;138400;-76
2022/04/26 03:41:35;;;;;;;31.90;20.50;;;;;;;7.67;86.17;98116.63;106048;1278;25271;-76
2022/04/26 03:44:04;;;;;;;37.70;23.40;;;;;;;7.63;86.03;98118.83;105917;1278;25414;-76
2022/04/26 03:46:30;;;;;;;37.60;20.90;;;;;;;7.59;86.35;98119.35;105792;1278;137815;-76
2022/04/26 03:48:56;;;;;;;33.20;21.20;;;;;;;7.55;85.99;98118.51;105838;1278;22773;-76
2022/04/26 03:51:37;;;;;;;39.90;23.60;;;;;;;7.50;86.14;98123.06;105685;1281;138212;-76
2022/04/26 03:54:03;;;;;;;47.10;27.80;;;;;;;7.45;85.99;98122.66;105850;1281;22560;-76
2022/04/26 03:56:31;;;;;;;45.50;27.40;;;;;;;7.46;86.56;98121.83;105876;1280;23074;-76
2022/04/26 03:58:57;;;;;;;46.80;26.00;;;;;;;7.49;86.58;98130.81;105743;1280;137657;-75
2022/04/26 04:01:23;;;;;;;39.80;22.50;;;;;;;7.51;86.63;98132.29;105825;1277;22769;-76
2022/04/26 04:03:49;;;;;;;32.30;20.60;;;;;;;7.57;86.63;98134.39;105761;1281;138134;-76
2022/04/26 04:06:16;;;;;;;32.50;20.50;;;;;;;7.65;86.79;98138.48;105898;1278;24756;-77
2022/04/26 04:08:42;;;;;;;34.60;20.80;;;;;;;7.68;86.43;98146.19;105989;1277;22568;-76
2022/04/26 04:11:08;;;;;;;30.00;16.30;;;;;;;7.67;86.10;98150.24;105720;1281;137492;-76
2022/04/26 04:13:34;;;;;;;29.40;17.80;;;;;;;7.65;85.81;98152.98;105818;1281;24283;-76
2022/04/26 04:16:00;;;;;;;29.90;17.40;;;;;;;7.61;85.85;98153.57;105674;1281;138296;-76
2022/04/26 04:21:07;;;;;;;27.10;17.60;;;;;;;7.60;86.14;98158.80;106023;1277;138166;-77
2022/04/26 04:23:47;;;;;;;28.60;17.20;;;;;;;7.65;86.14;98162.54;106078;1277;22581;-76
2022/04/26 04:26:15;;;;;;;28.30;17.00;;;;;;;7.66;86.03;98165.45;106012;1281;25361;-76
2022/04/26 04:28:41;;;;;;;25.30;16.20;;;;;;;7.68;86.14;98168.36;105899;1278;138100;-77
2022/04/26 04:31:22;;;;;;;30.30;18.10;;;;;;;7.71;86.10;98170.89;105957;1278;22556;-77
2022/04/26 04:33:48;;;;;;;34.20;19.10;;;;;;;7.75;86.35;98176.25;105778;1281;137600;-76
2022/04/26 04:36:15;;;;;;;38.10;21.00;;;;;;;7.79;86.30;98178.19;105754;1281;25690;-76
2022/04/26 04:38:41;;;;;;;30.90;19.20;;;;;;;7.83;85.95;98180.17;105959;1281;24423;-78
2022/04/26 04:41:08;;;;;;;31.20;19.50;;;;;;;7.85;85.92;98188.89;105596;1280;137776;-75
2022/04/26 04:43:35;;;;;;;32.30;19.40;;;;;;;7.86;85.78;98186.47;105747;1281;25464;-76
2022/04/26 04:46:02;;;;;;;36.30;20.60;;;;;;;7.87;85.81;98185.36;105901;1277;137807;-76
2022/04/26 04:48:28;;;;;;;34.00;20.10;;;;;;;7.89;86.18;98188.92;105857;1281;22745;-76
2022/04/26 04:50:55;;;;;;;32.70;19.10;;;;;;;7.89;86.20;98188.66;105791;1277;139639;-75
2022/04/26 04:53:21;;;;;;;31.90;18.40;;;;;;;7.93;86.13;98187.18;105695;1281;24336;-76
2022/04/26 04:55:48;;;;;;;31.80;19.10;;;;;;;7.97;86.04;98192.08;105701;1282;23638;-76
2022/04/26 04:58:14;;;;;;;36.00;20.20;;;;;;;8.02;85.99;98192.00;105641;1281;137484;-78
2022/04/26 05:00:40;;;;;;;34.40;20.30;;;;;;;8.04;86.32;98196.84;106109;1277;25387;-78
2022/04/26 05:03:07;;;;;;;35.00;18.50;;;;;;;8.06;85.82;98194.88;105771;1281;138466;-75
2022/04/26 05:05:33;;;;;;;28.90;18.10;;;;;;;8.09;85.71;98199.55;105788;1278;25308;-76
2022/04/26 05:07:59;;;;;;;32.90;18.70;;;;;;;8.10;85.69;98197.46;105946;1278;26637;-76
2022/04/26 05:10:26;;;;;;;29.50;19.00;;;;;;;8.12;85.40;98201.46;106022;1277;137578;-78
2022/04/26 05:12:53;;;;;;;37.40;20.30;;;;;;;8.14;85.49;98207.27;105953;1277;24442;-76
2022/04/26 05:15:19;;;;;;;30.30;19.00;;;;;;;8.16;85.30;98209.70;105823;1278;138581;-76
2022/04/26 05:17:46;;;;;;;29.60;18.30;;;;;;;8.22;85.34;98209.55;105857;1281;24334;-76
2022/04/26 05:20:12;;;;;;;32.30;18.70;;;;;;;8.23;85.30;98214.25;106028;1278;22697;-76
2022/04/26 05:25:22;;;;;;;36.40;19.40;;;;;;;8.31;85.56;98218.56;105927;1278;25402;-76
2022/04/26 05:27:48;;;;;;;36.40;20.50;;;;;;;8.33;85.18;98222.41;105814;1281;139172;-76
2022/04/26 05:30:15;;;;;;;34.40;19.90;;;;;;;8.36;84.92;98226.00;105803;1278;22555;-76
2022/04/26 05:32:55;;;;;;;33.70;19.80;;;;;;;8.36;84.76;98228.83;105868;1281;137872;-76
2022/04/26 05:35:22;;;;;;;36.30;20.60;;;;;;;8.34;84.59;98234.25;105904;1281;22591;-76
2022/04/26 05:37:49;;;;;;;34.80;19.80;;;;;;;8.34;84.53;98237.30;105672;1280;25346;-76
2022/04/26 05:40:15;;;;;;;35.50;20.60;;;;;;;8.33;84.55;98238.26;105966;1280;138570;-76
2022/04/26 05:42:42;;;;;;;36.50;19.20;;;;;;;8.35;84.49;98240.04;105752;1278;22573;-76
2022/04/26 05:45:08;;;;;;;31.80;19.80;;;;;;;8.36;84.39;98243.68;105749;1280;137774;-76
2022/04/26 05:47:40;;;;;;;36.10;21.50;;;;;;;8.39;84.71;98245.98;105981;1278;25333;-76
2022/04/26 05:50:11;;;;;;;36.30;21.30;;;;;;;8.40;84.47;98248.75;105948;1278;22635;-76
2022/04/26 05:52:38;;;;;;;34.30;19.80;;;;;;;8.41;83.91;98253.45;105693;1281;138435;-76
2022/04/26 05:55:07;;;;;;;33.50;21.00;;;;;;;8.40;83.99;98257.02;105932;1280;22563;-76
2022/04/26 05:57:38;;;;;;;33.80;21.20;;;;;;;8.38;83.89;98260.95;105805;1281;137670;-77
2022/04/26 06:00:10;;;;;;;37.50;21.70;;;;;;;8.37;83.85;98261.95;105849;1281;25269;-77
2022/04/26 06:02:41;;;;;;;37.40;21.80;;;;;;;8.38;84.04;98268.65;105928;1280;24262;-77
2022/04/26 06:05:08;;;;;;;36.90;19.60;;;;;;;8.41;83.89;98265.40;105914;1277;138015;-77
2022/04/26 06:07:34;;;;;;;35.80;19.20;;;;;;;8.41;83.54;98266.56;105951;1277;22644;-77
2022/04/26 06:10:15;;;;;;;35.20;21.70;;;;;;;8.44;83.44;98268.08;105666;1278;137667;-77
2022/04/26 06:12:44;;;;;;;38.60;20.60;;;;;;;8.42;83.35;98269.52;105956;1277;22578;-77
2022/04/26 06:15:14;;;;;;;35.10;21.20;;;;;;;8.43;83.39;98268.14;105802;1278;137924;-77
2022/04/26 06:17:40;;;;;;;33.50;19.50;;;;;;;8.43;83.08;98271.81;105732;1278;23345;-76
2022/04/26 06:20:10;;;;;;;35.00;20.60;;;;;;;8.42;82.94;98274.06;105918;1278;22630;-76
2022/04/26 06:22:36;;;;;;;30.60;18.50;;;;;;;8.43;82.94;98272.48;105855;1278;137808;-76
2022/04/26 06:25:04;;;;;;;41.60;21.10;;;;;;;8.46;82.70;98278.23;105894;1278;22537;-76
2022/04/26 06:27:30;;;;;;;39.90;21.00;;;;;;;8.47;82.64;98275.71;105989;1277;137564;-76
2022/04/26 06:29:56;;;;;;;32.90;20.20;;;;;;;8.49;82.98;98276.48;105920;1277;22641;-76
2022/04/26 06:32:23;;;;;;;30.50;19.40;;;;;;;8.49;82.64;98275.35;105999;1277;25556;-76
2022/04/26 06:34:50;;;;;;;36.50;19.90;;;;;;;8.49;82.35;98274.54;105860;1278;139146;-76
2022/04/26 06:37:16;;;;;;;35.00;19.30;;;;;;;8.54;82.32;98275.55;106837;1277;24386;-76
2022/04/26 06:39:43;;;;;;;34.20;19.50;;;;;;;8.59;82.47;98275.89;106424;1277;138065;-76
2022/04/26 06:42:12;;;;;;;38.10;21.00;;;;;;;8.66;82.10;98277.71;106171;1277;22605;-76
2022/04/26 06:44:40;;;;;;;37.10;21.00;;;;;;;8.74;82.54;98281.48;106153;1278;22569;-76
2022/04/26 06:47:06;;;;;;;41.00;20.70;;;;;;;8.80;82.27;98279.08;106304;1277;137254;-76
2022/04/26 06:49:32;;;;;;;33.50;18.20;;;;;;;8.86;82.05;98277.80;106226;1277;24312;-76
2022/04/26 06:51:58;;;;;;;29.40;17.90;;;;;;;8.92;81.88;98279.50;105958;1277;137967;-76
2022/04/26 06:54:27;;;;;;;34.00;19.60;;;;;;;8.99;81.61;98280.40;106091;1280;22551;-76
2022/04/26 06:56:53;;;;;;;33.10;18.70;;;;;;;9.04;81.32;98278.39;105894;1280;138343;-76
2022/04/26 06:59:19;;;;;;;33.10;19.50;;;;;;;9.07;80.75;98283.57;106177;1280;25341;-76
2022/04/26 07:01:52;;;;;;;34.20;19.10;;;;;;;9.08;80.43;98279.67;105775;1280;25398;-76
2022/04/26 07:04:22;;;;;;;33.00;17.20;;;;;;;9.11;80.14;98283.70;105636;1278;137990;-76
2022/04/26 07:06:48;;;;;;;36.90;19.40;;;;;;;9.13;79.71;98288.09;105812;1278;24102;-76
2022/04/26 07:09:15;;;;;;;29.80;18.20;;;;;;;9.13;79.97;98283.36;105910;1277;137992;-76
2022/04/26 07:11:57;;;;;;;33.00;19.10;;;;;;;9.20;80.05;98285.40;106135;1277;22681;-76
2022/04/26 07:14:23;;;;;;;39.00;21.30;;;;;;;9.26;79.75;98287.37;106065;1277;22569;-76
2022/04/26 07:16:49;;;;;;;36.20;22.50;;;;;;;9.35;79.89;98291.79;105669;1278;137789;-77
2022/04/26 07:19:17;;;;;;;33.90;20.40;;;;;;;9.43;79.83;98292.00;105704;1278;23935;-76
2022/04/26 07:21:46;;;;;;;31.80;19.60;;;;;;;9.51;79.42;98296.13;105783;1278;137989;-77
2022/04/26 07:24:13;;;;;;;34.50;19.80;;;;;;;9.58;79.12;98295.77;105773;1278;22544;-76
2022/04/26 07:26:39;;;;;;;32.80;18.30;;;;;;;9.69;79.16;98298.43;105985;1280;22634;-76
2022/04/26 07:29:05;;;;;;;32.90;20.50;;;;;;;9.76;78.52;98301.65;105751;1278;137855;-76
2022/04/26 07:31:32;;;;;;;37.10;22.20;;;;;;;9.82;78.28;98306.87;106095;1276;24334;-76
2022/04/26 07:36:38;;;;;;;38.30;22.70;;;;;;;9.87;78.04;98303.91;106005;1277;29573;-76
2022/04/26 07:39:06;;;;;;;43.20;23.60;;;;;;;9.90;78.48;98305.13;105802;1277;138121;-76
2022/04/26 07:41:33;;;;;;;42.50;23.20;;;;;;;9.95;78.19;98309.79;105889;1277;23922;-76
2022/04/26 07:43:59;;;;;;;45.40;23.80;;;;;;;10.00;78.26;98309.64;106005;1277;22576;-76
2022/04/26 07:46:25;;;;;;;39.00;22.90;;;;;;;10.03;77.80;98310.64;105759;1277;137901;-76
2022/04/26 07:48:51;;;;;;;44.20;25.00;;;;;;;10.09;77.43;98312.33;105971;1277;24448;-76
2022/04/26 07:51:18;;;;;;;42.40;23.90;;;;;;;10.15;77.73;98317.31;105856;1277;137994;-76
2022/04/26 07:53:45;;;;;;;40.10;22.70;;;;;;;10.22;77.43;98313.67;105993;1277;22554;-76
2022/04/26 07:56:11;;;;;;;41.30;23.90;;;;;;;10.29;76.97;98315.52;105815;1278;22645;-76
2022/04/26 07:58:37;;;;;;;43.10;24.70;;;;;;;10.35;76.75;98316.54;105937;1279;137669;-76
2022/04/26 08:01:04;;;;;;;37.00;21.70;;;;;;;10.43;75.94;98316.02;105860;1280;22835;-76
2022/04/26 08:03:33;;;;;;;40.50;22.00;;;;;;;10.50;75.78;98318.63;105666;1279;138221;-76
2022/04/26 08:06:00;;;;;;;41.30;24.60;;;;;;;10.58;76.00;98316.59;105539;1277;379227;-76
2022/04/26 08:08:26;;;;;;;39.00;22.30;;;;;;;10.69;75.84;98316.86;106014;1277;22605;-76
2022/04/26 08:10:52;;;;;;;41.50;24.00;;;;;;;10.81;74.91;98315.23;105784;1277;137989;-77
2022/04/26 08:13:18;;;;;;;37.30;24.20;;;;;;;10.92;74.18;98318.44;105708;1277;22739;-77
2022/04/26 08:15:45;;;;;;;40.80;24.70;;;;;;;11.04;73.94;98320.80;105521;1278;137826;-77
2022/04/26 08:18:12;;;;;;;43.10;25.00;;;;;;;11.15;73.77;98319.96;105657;1277;22574;-77
2022/04/26 08:20:38;;;;;;;35.70;22.80;;;;;;;11.25;73.25;98324.33;105659;1278;22548;-77
2022/04/26 08:23:07;;;;;;;37.80;22.40;;;;;;;11.32;72.53;98326.39;105816;1277;137659;-75
2022/04/26 08:28:14;;;;;;;38.20;22.90;;;;;;;11.50;72.37;98324.20;105757;1277;138682;-77
2022/04/26 08:30:40;;;;;;;33.10;19.70;;;;;;;11.65;71.42;98327.81;106056;1277;22574;-77
2022/04/26 08:33:06;;;;;;;39.40;21.60;;;;;;;11.67;69.90;98328.55;105924;1277;138209;-76
2022/04/26 08:35:33;;;;;;;32.40;21.20;;;;;;;11.69;70.32;98331.27;105886;1277;22579;-76
2022/04/26 08:37:59;;;;;;;35.60;19.90;;;;;;;11.75;69.82;98331.95;105893;1277;22579;-75
2022/04/26 08:40:26;;;;;;;36.30;20.60;;;;;;;11.75;68.54;98330.95;105778;1277;137756;-76
2022/04/26 08:42:53;;;;;;;31.30;19.30;;;;;;;11.69;69.40;98331.36;105849;1278;22566;-75
2022/04/26 08:45:21;;;;;;;36.40;20.80;;;;;;;11.66;68.75;98331.50;105749;1278;137977;-75
2022/04/26 08:53:10;;;;;;;33.00;20.50;;;;;;;11.54;68.64;98335.18;105889;1277;137743;-76
2022/04/26 08:55:58;;;;;;;37.90;21.30;;;;;;;11.52;68.55;98337.34;106053;1277;22722;-76
2022/04/26 08:58:30;;;;;;;37.20;21.10;;;;;;;11.53;68.91;98334.84;105889;1277;137766;-76
2022/04/26 09:01:16;;;;;;;32.80;20.10;;;;;;;11.58;69.21;98335.89;105961;1277;24248;-75
2022/04/26 09:03:54;;;;;;;34.30;20.20;;;;;;;11.67;68.59;98338.52;105812;1277;137889;-76
2022/04/26 09:06:43;;;;;;;28.20;19.30;;;;;;;11.75;68.65;98336.58;105702;1278;24093;-76
2022/04/26 09:09:15;;;;;;;29.60;18.00;;;;;;;11.83;67.53;98334.15;105765;1277;137952;-76
2022/04/26 09:11:43;;;;;;;30.40;18.50;;;;;;;11.85;67.61;98336.40;106005;1277;22632;-77
2022/04/26 09:14:33;;;;;;;27.60;17.20;;;;;;;11.80;66.60;98338.70;106017;1277;25428;-75
2022/04/26 09:17:08;;;;;;;25.90;18.10;;;;;;;11.63;66.92;98339.75;105735;1277;138149;-75
2022/04/26 09:19:46;;;;;;;34.00;19.10;;;;;;;11.52;67.57;98339.30;105989;1277;25570;-75
2022/04/26 09:22:21;;;;;;;27.50;18.40;;;;;;;11.52;68.65;98340.17;105746;1278;137710;-75
2022/04/26 09:24:58;;;;;;;29.30;18.20;;;;;;;11.62;68.39;98342.41;105808;1280;22601;-76
2022/04/26 09:27:26;;;;;;;28.70;18.70;;;;;;;11.68;67.57;98346.25;105818;1277;137772;-76
2022/04/26 09:29:52;;;;;;;23.70;15.60;;;;;;;11.72;67.24;98344.44;105909;1277;25342;-75
2022/04/26 09:32:18;;;;;;;28.30;15.50;;;;;;;11.74;66.92;98347.67;105927;1277;22655;-76
2022/04/26 09:34:44;;;;;;;20.00;14.10;;;;;;;11.76;67.37;98348.05;105799;1277;137847;-76
2022/04/26 09:37:12;;;;;;;24.60;14.50;;;;;;;11.81;66.22;98346.89;105951;1277;25493;-76
2022/04/26 09:39:41;;;;;;;26.20;15.20;;;;;;;11.87;66.16;98345.41;105675;1278;137868;-76
2022/04/26 09:42:33;;;;;;;19.80;14.10;;;;;;;11.92;65.77;98346.59;105979;1278;24269;-76
2022/04/26 09:45:08;;;;;;;23.10;14.70;;;;;;;11.93;65.26;98348.70;105861;1277;137947;-75
2022/04/26 09:47:41;;;;;;;17.40;11.90;;;;;;;11.94;65.35;98349.58;107044;1277;24550;-76
2022/04/26 09:50:09;;;;;;;18.90;12.70;;;;;;;11.88;65.00;98346.14;105910;1278;22572;-76
2022/04/26 09:52:37;;;;;;;16.20;12.10;;;;;;;11.84;64.43;98343.31;106132;1278;137791;-76
2022/04/26 09:55:05;;;;;;;16.20;11.40;;;;;;;11.82;64.54;98344.89;106301;1278;24329;-76
2022/04/26 09:57:49;;;;;;;17.30;11.50;;;;;;;11.79;64.07;98346.43;106088;1277;138260;-76
2022/04/26 10:00:15;;;;;;;18.50;12.80;;;;;;;11.75;63.90;98350.80;106514;1277;24435;-76
2022/04/26 10:02:54;;;;;;;18.40;12.00;;;;;;;11.69;64.09;98351.44;106351;1277;23378;-76
2022/04/26 10:05:22;;;;;;;15.80;12.30;;;;;;;11.63;64.16;98351.70;106114;1279;138115;-76
2022/04/26 10:07:51;;;;;;;17.50;12.80;;;;;;;11.48;64.56;98350.80;106353;1279;24425;-76
2022/04/26 10:10:21;;;;;;;22.80;13.80;;;;;;;11.36;64.58;98351.42;105974;1277;138248;-76
2022/04/26 10:15:43;;;;;;;21.00;13.60;;;;;;;11.11;65.83;98357.94;106152;1277;138773;-75
2022/04/26 10:18:31;;;;;;;18.40;11.90;;;;;;;10.97;66.06;98357.37;106339;1277;22542;-75
2022/04/26 10:20:58;;;;;;;20.20;14.80;;;;;;;10.84;66.33;98356.67;106220;1277;24375;-76
2022/04/26 10:23:25;;;;;;;25.00;14.90;;;;;;;10.75;66.82;98358.45;106120;1277;137962;-75
2022/04/26 10:26:21;;;;;;;22.60;14.90;;;;;;;10.67;67.63;98360.51;106147;1277;25346;-76
2022/04/26 10:29:13;;;;;;;21.90;14.50;;;;;;;10.56;68.56;98364.91;106085;1277;138354;-76
2022/04/26 10:31:47;;;;;;;20.80;14.00;;;;;;;10.45;68.47;98363.86;106492;1277;24399;-75
2022/04/26 10:34:41;;;;;;;27.00;15.00;;;;;;;10.35;68.34;98366.02;106172;1277;138485;-76
2022/04/26 10:37:06;;;;;;;27.80;14.60;;;;;;;10.26;69.06;98368.94;106199;1277;24455;-75
2022/04/26 10:39:41;;;;;;;18.60;13.20;;;;;;;10.19;69.48;98373.21;105987;1280;138833;-76
2022/04/26 10:42:17;;;;;;;21.60;12.80;;;;;;;10.13;69.77;98374.59;105954;1280;23073;-76
2022/04/26 10:44:45;;;;;;;21.70;13.30;;;;;;;10.06;69.46;98378.55;105906;1280;24293;-76
2022/04/26 10:47:18;;;;;;;26.60;13.50;;;;;;;9.99;70.45;98384.83;105993;1280;137915;-76
2022/04/26 10:49:45;;;;;;;18.00;12.50;;;;;;;9.91;70.74;98385.71;106207;1278;24250;-76
2022/04/26 10:52:15;;;;;;;23.50;14.50;;;;;;;9.84;71.50;98389.98;105682;1277;138328;-76
2022/04/26 10:57:39;;;;;;;24.40;13.40;;;;;;;9.78;72.11;98384.86;105931;1278;138854;-76
2022/04/26 11:00:12;;;;;;;20.10;13.30;;;;;;;9.76;72.13;98386.95;106235;1277;22565;-76
2022/04/26 11:02:40;;;;;;;28.90;14.30;;;;;;;9.74;72.45;98382.05;106112;1277;25277;-76
2022/04/26 11:05:09;;;;;;;28.80;16.30;;;;;;;9.74;72.73;98384.84;106059;1277;137720;-76
2022/04/26 11:07:37;;;;;;;23.90;15.10;;;;;;;9.72;72.91;98385.61;106260;1277;24325;-76
2022/04/26 11:10:04;;;;;;;27.50;14.70;;;;;;;9.75;73.34;98384.42;106367;1277;137946;-76
2022/04/26 11:12:33;;;;;;;23.10;13.80;;;;;;;9.79;72.57;98386.31;106306;1277;22560;-76
2022/04/26 11:15:02;;;;;;;24.50;14.80;;;;;;;9.83;72.52;98386.15;106331;1277;23060;-76
2022/04/26 11:17:29;;;;;;;19.00;12.90;;;;;;;9.88;72.63;98386.41;106251;1277;137835;-76
2022/04/26 11:20:03;;;;;;;23.00;14.00;;;;;;;9.90;72.27;98392.06;106486;1277;22674;-76
2022/04/26 11:22:55;;;;;;;25.50;14.20;;;;;;;9.89;72.38;98388.23;106131;1277;137742;-76
2022/04/26 11:28:09;;;;;;;20.70;13.50;;;;;;;9.99;73.34;98398.15;105805;1280;138871;-76
2022/04/26 11:30:37;;;;;;;20.80;13.70;;;;;;;10.08;72.61;98396.65;106043;1277;22565;-76
2022/04/26 11:33:12;;;;;;;26.10;15.30;;;;;;;10.15;73.01;98388.98;105957;1277;24684;-75
2022/04/26 11:35:39;;;;;;;22.40;15.10;;;;;;;10.22;72.87;98392.18;105579;1277;137717;-76
2022/04/26 11:38:14;;;;;;;27.30;17.30;;;;;;;10.28;72.78;98394.73;105973;1277;26567;-75
2022/04/26 11:40:42;;;;;;;25.80;15.60;;;;;;;10.30;72.46;98394.95;105908;1277;137738;-75
2022/04/26 11:43:14;;;;;;;27.10;17.40;;;;;;;10.34;72.21;98396.34;105868;1278;22566;-73
2022/04/26 11:45:47;;;;;;;23.70;17.10;;;;;;;10.35;71.88;98393.73;105822;1278;137864;-77
2022/04/26 11:48:17;;;;;;;24.50;15.70;;;;;;;10.35;72.31;98395.20;106070;1277;23479;-75
2022/04/26 11:50:46;;;;;;;23.70;15.90;;;;;;;10.35;72.12;98396.84;105821;1277;22658;-75
2022/04/26 11:53:14;;;;;;;;;;;;;;;10.34;72.15;98398.36;106014;1277;137786;-75
2022/04/26 11:55:43;;;;;;;25.30;15.50;;;;;;;10.33;72.37;98394.52;105850;1280;22548;-75
2022/04/26 11:58:36;;;;;;;28.50;17.00;;;;;;;10.32;72.50;98398.94;106143;1277;137871;-75
2022/04/26 12:01:13;;;;;;;25.40;16.30;;;;;;;10.29;72.55;98399.52;105685;1280;25446;-75
2022/04/26 12:03:54;;;;;;;25.50;16.10;;;;;;;10.26;72.09;98401.17;105831;1279;137946;-75
2022/04/26 12:06:35;;;;;;;24.20;15.60;;;;;;;10.20;71.59;98402.25;105821;1280;24948;-75
2022/04/26 12:09:03;;;;;;;24.90;15.60;;;;;;;10.16;71.97;98406.42;105914;1280;24269;-75
2022/04/26 12:11:35;;;;;;;23.10;16.00;;;;;;;10.12;71.61;98410.20;105772;1277;137804;-77
2022/04/26 12:14:06;;;;;;;27.90;16.00;;;;;;;10.09;71.67;98408.46;105652;1277;24431;-75
2022/04/26 12:16:40;;;;;;;27.30;16.60;;;;;;;10.05;71.74;98402.52;105947;1277;138643;-75
2022/04/26 12:19:08;;;;;;;23.20;16.50;;;;;;;10.02;72.44;98405.39;105858;1277;22560;-75
2022/04/26 12:21:55;;;;;;;25.90;16.40;;;;;;;10.00;71.60;98405.41;105664;1280;138966;-75
2022/04/26 12:24:22;;;;;;;25.40;17.20;;;;;;;9.95;71.45;98400.86;105839;1280;25274;-76
2022/04/26 12:26:50;;;;;;;24.60;15.30;;;;;;;9.92;71.84;98398.56;105849;1280;24418;-76
2022/04/26 12:29:16;;;;;;;23.70;15.60;;;;;;;9.89;71.94;98396.88;105813;1280;137942;-76
2022/04/26 12:31:45;;;;;;;30.40;16.40;;;;;;;9.87;72.68;98398.90;106050;1277;24292;-76
2022/04/26 12:34:36;;;;;;;30.20;17.50;;;;;;;9.84;72.90;98403.91;105807;1277;137635;-76
2022/04/26 12:37:09;;;;;;;24.40;16.00;;;;;;;9.79;73.41;98401.25;105704;1277;22551;-76
2022/04/26 12:39:43;;;;;;;22.50;14.40;;;;;;;9.76;73.56;98402.02;105746;1277;138521;-76
2022/04/26 12:42:38;;;;;;;20.50;13.10;;;;;;;9.72;73.35;98403.17;105801;1277;24441;-76
2022/04/26 12:45:12;;;;;;;23.10;15.80;;;;;;;9.68;72.89;98406.20;105769;1278;22737;-76
2022/04/26 12:53:07;;;;;;;22.40;14.80;;;;;;;9.43;73.75;98402.30;105770;1277;138235;-76
2022/04/26 12:55:43;;;;;;;23.20;15.00;;;;;;;9.39;74.57;98406.94;106014;1275;24237;-76
2022/04/26 12:58:15;;;;;;;23.50;14.60;;;;;;;9.38;74.83;98406.16;105797;1277;137920;-76
2022/04/26 13:00:47;;;;;;;24.40;14.80;;;;;;;9.34;74.78;98406.84;106022;1277;22700;-76
2022/04/26 13:03:18;;;;;;;21.10;14.40;;;;;;;9.29;74.97;98410.59;105754;1279;25452;-77
2022/04/26 13:05:54;;;;;;;21.80;13.80;;;;;;;9.25;75.07;98408.31;105684;1279;138423;-75
2022/04/26 13:08:21;;;;;;;21.20;14.00;;;;;;;9.24;75.35;98404.55;105794;1280;25354;-75
2022/04/26 13:11:04;;;;;;;19.30;13.20;;;;;;;9.25;75.35;98404.68;105702;1279;137759;-75
2022/04/26 13:13:32;;;;;;;19.20;12.50;;;;;;;9.26;75.14;98404.83;105830;1279;22566;-77
2022/04/26 13:15:59;;;;;;;20.90;12.30;;;;;;;9.25;74.88;98403.73;105921;1277;137998;-77
2022/04/26 13:18:26;;;;;;;18.00;11.60;;;;;;;9.26;74.93;98404.13;106040;1277;22556;-77
2022/04/26 13:20:54;;;;;;;16.40;9.70;;;;;;;9.27;74.32;98405.44;105866;1277;24295;-75
2022/04/26 13:23:36;;;;;;;12.70;8.30;;;;;;;9.28;73.70;98407.41;105744;1277;138607;-76
2022/04/26 13:26:02;;;;;;;15.10;8.90;;;;;;;9.35;73.48;98405.92;105926;1277;26197;-76
2022/04/26 13:28:29;;;;;;;14.10;7.80;;;;;;;9.43;72.58;98402.46;105530;1278;137623;-77
2022/04/26 13:30:55;;;;;;;13.40;8.20;;;;;;;9.51;72.27;98399.04;105672;1277;22557;-77
2022/04/26 13:33:22;;;;;;;12.40;7.00;;;;;;;9.61;72.36;98399.68;105743;1277;138004;-77
2022/04/26 13:35:48;;;;;;;11.10;7.50;;;;;;;9.69;71.92;98401.86;105922;1277;23941;-76
2022/04/26 13:38:16;;;;;;;14.40;7.90;;;;;;;9.73;70.71;98401.08;106201;1277;22545;-76
2022/04/26 13:40:59;;;;;;;11.60;7.60;;;;;;;9.73;70.97;98399.62;105608;1277;138066;-76
2022/04/26 13:43:25;;;;;;;11.30;7.50;;;;;;;9.75;70.71;98400.02;105923;1277;22548;-76
2022/04/26 13:46:06;;;;;;;12.10;8.00;;;;;;;9.78;70.33;98403.95;105812;1280;138080;-76
2022/04/26 13:48:32;;;;;;;9.90;7.70;;;;;;;9.80;70.48;98407.53;105910;1278;22618;-76
2022/04/26 13:50:59;;;;;;;14.30;8.50;;;;;;;9.84;70.51;98406.08;105835;1278;25009;-76
2022/04/26 13:53:27;;;;;;;14.40;8.20;;;;;;;9.89;70.05;98402.70;105702;1277;137605;-76
2022/04/26 13:55:53;;;;;;;10.80;7.90;;;;;;;9.92;69.80;98402.21;105890;1277;22917;-76
2022/04/26 13:58:19;;;;;;;13.40;8.00;;;;;;;9.94;70.07;98404.48;105843;1280;138226;-76
2022/04/26 14:00:45;;;;;;;13.60;8.60;;;;;;;9.98;70.16;98406.40;105795;1278;22593;-76
2022/04/26 14:03:13;;;;;;;14.90;8.60;;;;;;;10.04;70.30;98409.84;105809;1277;22682;-76
2022/04/26 14:05:39;;;;;;;12.00;9.40;;;;;;;10.11;70.23;98410.95;105725;1278;137776;-76
2022/04/26 14:08:06;;;;;;;18.80;9.90;;;;;;;10.14;69.48;98412.13;105748;1278;22674;-76
2022/04/26 14:10:32;;;;;;;16.70;9.20;;;;;;;10.16;70.08;98411.04;105842;1278;137802;-76
2022/04/26 14:12:59;;;;;;;13.40;8.40;;;;;;;10.19;69.35;98410.02;106071;1277;22545;-76
2022/04/26 14:23:27;;;;;;;12.30;8.20;;;;;;;10.11;68.89;98406.34;105887;1280;139567;-76
2022/04/26 14:26:08;;;;;;;15.60;9.20;;;;;;;10.12;69.29;98408.40;105812;1280;24418;-76
2022/04/26 14:28:34;;;;;;;15.80;10.00;;;;;;;10.12;68.80;98403.45;105631;1280;137699;-76
2022/04/26 14:31:01;;;;;;;15.20;9.50;;;;;;;10.12;68.41;98402.54;105810;1280;22569;-76
2022/04/26 14:33:27;;;;;;;14.50;8.80;;;;;;;10.12;68.58;98403.13;105794;1277;139116;-76
2022/04/26 14:35:53;;;;;;;17.10;9.10;;;;;;;10.13;68.30;98402.70;105843;1277;25366;-76
2022/04/26 14:38:20;;;;;;;15.40;8.80;;;;;;;10.10;68.33;98404.47;105818;1280;25534;-76
2022/04/26 14:40:47;;;;;;;12.30;8.00;;;;;;;10.07;68.28;98404.41;105795;1278;137626;-76
2022/04/26 14:43:14;;;;;;;17.30;10.30;;;;;;;10.04;68.16;98407.79;105903;1277;27098;-76
2022/04/26 14:45:47;;;;;;;13.20;8.20;;;;;;;10.01;68.56;98410.39;105931;1280;138644;-76
2022/04/26 14:48:18;;;;;;;15.30;9.40;;;;;;;9.99;68.46;98408.72;106301;1280;22583;-76
2022/04/26 14:50:45;;;;;;;18.70;8.80;;;;;;;9.96;68.73;98408.88;105963;1280;22638;-76
2022/04/26 14:53:11;;;;;;;14.70;8.90;;;;;;;9.95;68.94;98411.75;105951;1280;137988;-75
2022/04/26 14:55:52;;;;;;;14.10;8.80;;;;;;;9.97;69.38;98410.79;106080;1277;31182;-76
2022/04/26 14:58:19;;;;;;;16.10;9.50;;;;;;;10.02;69.49;98410.18;105769;1280;137606;-76
2022/04/26 15:00:45;;;;;;;13.40;7.90;;;;;;;10.08;69.10;98414.27;106023;1280;22599;-75
2022/04/26 15:03:11;;;;;;;13.00;7.60;;;;;;;10.09;68.67;98411.02;106218;1280;24464;-75
2022/04/26 15:05:38;;;;;;;14.10;7.70;;;;;;;10.07;68.48;98408.27;105686;1280;137713;-76
2022/04/26 15:10:44;;;;;;;11.40;7.70;;;;;;;10.06;68.00;98413.14;106069;1277;138219;-76
2022/04/26 15:18:32;;;;;;;17.90;8.40;;;;;;;10.08;69.07;98409.48;106045;1280;22569;-76
2022/04/26 15:20:59;;;;;;;16.40;8.10;;;;;;;10.12;69.12;98410.33;105951;1280;24240;-76
2022/04/26 15:23:40;;;;;;;12.90;7.10;;;;;;;10.15;68.85;98409.67;105773;1280;137971;-76
2022/04/26 15:26:08;;;;;;;11.50;6.80;;;;;;;10.17;68.66;98409.05;105927;1278;22567;-76
2022/04/26 15:28:34;;;;;;;10.50;7.00;;;;;;;10.17;68.91;98408.80;105589;1280;137807;-76
2022/04/26 15:31:01;;;;;;;11.90;6.90;;;;;;;10.17;68.90;98410.05;105980;1278;22567;-76
2022/04/26 15:33:43;;;;;;;11.40;7.30;;;;;;;10.16;68.86;98411.63;105919;1277;138003;-76
2022/04/26 15:36:10;;;;;;;14.10;8.70;;;;;;;10.11;69.67;98416.84;105764;1280;22725;-76
2022/04/26 15:38:37;;;;;;;13.20;7.70;;;;;;;10.08;70.22;98419.50;105964;1280;22642;-76
2022/04/26 15:41:06;;;;;;;15.20;9.10;;;;;;;10.05;69.66;98419.77;105874;1280;137789;-76
2022/04/26 15:43:34;;;;;;;15.50;9.90;;;;;;;10.00;69.77;98420.80;105838;1279;25395;-76
2022/04/26 15:46:06;;;;;;;16.60;10.20;;;;;;;9.96;70.02;98424.23;106376;1277;137997;-76